createdAt,value
2023-03-12T00:01:45.070Z,2.67
2023-03-12T00:04:11.948Z,2.47
2023-03-12T00:06:38.507Z,3.87
2023-03-12T00:09:05.169Z,2.23
2023-03-12T00:11:31.689Z,2.33
2023-03-12T00:14:03.090Z,2.20
2023-03-12T00:16:30.285Z,3.70
2023-03-12T00:18:56.914Z,2.30
2023-03-12T00:21:23.967Z,2.17
2023-03-12T00:23:51.529Z,2.37
2023-03-12T00:26:18.726Z,2.17
2023-03-12T00:28:45.258Z,2.77
2023-03-12T00:31:35.696Z,2.33
2023-03-12T00:34:05.343Z,2.50
2023-03-12T00:36:35.065Z,2.27
2023-03-12T00:39:01.753Z,2.40
2023-03-12T00:45:02.216Z,3.03
2023-03-12T00:47:28.824Z,2.70
2023-03-12T00:49:55.508Z,1.93
2023-03-12T00:52:22.042Z,3.40
2023-03-12T00:54:48.546Z,2.77
2023-03-12T00:57:15.000Z,2.23
2023-03-12T00:59:42.345Z,2.70
2023-03-12T01:02:09.142Z,2.10
2023-03-12T01:04:35.635Z,1.70
2023-03-12T01:07:02.221Z,1.23
2023-03-12T01:09:28.723Z,1.60
2023-03-12T01:11:55.234Z,1.47
2023-03-12T01:17:55.317Z,2.00
2023-03-12T01:20:23.197Z,2.63
2023-03-12T01:22:49.891Z,1.57
2023-03-12T01:25:16.374Z,2.27
2023-03-12T01:27:42.900Z,2.27
2023-03-12T01:30:10.145Z,2.80
2023-03-12T01:32:36.737Z,2.93
2023-03-12T01:35:03.427Z,1.33
2023-03-12T01:37:29.973Z,1.80
2023-03-12T01:39:56.491Z,1.90
2023-03-12T01:42:22.990Z,2.90
2023-03-12T01:44:49.462Z,3.97
2023-03-12T01:47:15.965Z,2.13
2023-03-12T01:49:42.542Z,2.10
2023-03-12T01:52:14.495Z,2.60
2023-03-12T01:55:03.209Z,2.50
2023-03-12T01:57:49.943Z,2.20
2023-03-12T02:00:25.240Z,1.40
2023-03-12T02:02:52.423Z,0.93
2023-03-12T02:05:32.275Z,2.03
2023-03-12T02:07:58.750Z,1.23
2023-03-12T02:10:25.901Z,2.17
2023-03-12T02:12:52.951Z,3.03
2023-03-12T02:15:19.751Z,3.63
2023-03-12T02:17:46.303Z,1.47
2023-03-12T02:20:20.572Z,3.20
2023-03-12T02:22:53.110Z,3.20
2023-03-12T02:25:49.050Z,3.60
2023-03-12T02:28:16.792Z,1.57
2023-03-12T02:30:46.134Z,3.57
2023-03-12T02:33:13.182Z,2.17
2023-03-12T02:35:39.664Z,3.23
2023-03-12T02:38:26.146Z,1.53
2023-03-12T02:44:33.576Z,3.27
2023-03-12T02:47:00.990Z,2.17
2023-03-12T02:49:28.839Z,3.50
2023-03-12T02:51:55.927Z,3.63
2023-03-12T02:54:23.540Z,4.70
2023-03-12T02:56:52.826Z,2.60
2023-03-12T02:59:21.900Z,4.80
2023-03-12T03:01:52.145Z,2.87
2023-03-12T03:04:18.675Z,1.10
2023-03-12T03:10:31.766Z,3.13
2023-03-12T03:12:58.451Z,2.27
2023-03-12T03:15:25.350Z,1.70
2023-03-12T03:17:51.864Z,1.63
2023-03-12T03:20:18.595Z,3.37
2023-03-12T03:23:00.726Z,2.63
2023-03-12T03:25:27.405Z,2.37
2023-03-12T03:35:03.437Z,2.43
2023-03-12T03:37:29.997Z,1.60
2023-03-12T03:39:56.484Z,2.67
2023-03-12T03:42:23.278Z,6.23
2023-03-12T03:44:49.783Z,2.03
2023-03-12T03:47:16.383Z,2.40
2023-03-12T03:49:42.967Z,3.80
2023-03-12T03:52:09.494Z,2.73
2023-03-12T03:54:36.124Z,2.00
2023-03-12T03:57:02.673Z,2.73
2023-03-12T03:59:29.211Z,2.80
2023-03-12T04:01:59.550Z,2.77
2023-03-12T04:04:26.039Z,1.43
2023-03-12T04:06:52.588Z,1.63
2023-03-12T04:09:19.049Z,2.57
2023-03-12T04:11:45.576Z,4.30
2023-03-12T04:14:12.205Z,1.80
2023-03-12T04:16:38.774Z,2.97
2023-03-12T04:19:05.265Z,2.67
2023-03-12T04:21:31.804Z,3.47
2023-03-12T04:23:58.363Z,3.20
2023-03-12T04:26:24.936Z,1.90
2023-03-12T04:28:51.668Z,1.93
2023-03-12T04:31:18.227Z,5.50
2023-03-12T04:33:44.801Z,3.10
2023-03-12T04:36:12.194Z,3.33
2023-03-12T04:38:38.829Z,4.93
2023-03-12T04:41:07.825Z,5.97
2023-03-12T04:43:34.682Z,3.13
2023-03-12T04:46:01.317Z,6.63
2023-03-12T04:48:27.860Z,3.73
2023-03-12T04:50:54.737Z,2.20
2023-03-12T04:53:21.702Z,1.73
2023-03-12T04:55:48.310Z,0.93
2023-03-12T04:58:14.944Z,2.40
2023-03-12T05:00:41.713Z,6.80
2023-03-12T05:03:08.645Z,3.23
2023-03-12T05:05:35.962Z,2.83
2023-03-12T05:08:03.534Z,1.70
2023-03-12T05:10:30.059Z,1.40
2023-03-12T05:12:56.618Z,2.03
2023-03-12T05:15:23.269Z,1.00
2023-03-12T05:17:49.829Z,1.60
2023-03-12T05:20:17.931Z,1.20
2023-03-12T05:22:44.741Z,1.60
2023-03-12T05:25:11.689Z,2.13
2023-03-12T05:27:38.529Z,2.17
2023-03-12T05:30:05.884Z,2.43
2023-03-12T05:32:32.501Z,1.63
2023-03-12T05:34:59.059Z,1.97
2023-03-12T05:37:25.771Z,2.40
2023-03-12T05:39:53.878Z,3.47
2023-03-12T05:42:20.506Z,5.60
2023-03-12T05:44:47.070Z,3.17
2023-03-12T05:47:13.651Z,1.90
2023-03-12T05:49:40.230Z,2.13
2023-03-12T05:52:06.770Z,2.73
2023-03-12T05:54:42.869Z,1.20
2023-03-12T05:57:09.415Z,1.40
2023-03-12T05:59:35.926Z,2.33
2023-03-12T06:02:02.640Z,2.17
2023-03-12T06:04:29.530Z,2.37
2023-03-12T06:06:56.416Z,2.93
2023-03-12T06:09:23.174Z,2.87
2023-03-12T06:11:49.704Z,2.40
2023-03-12T06:14:16.216Z,3.77
2023-03-12T06:16:42.795Z,0.97
2023-03-12T06:19:14.071Z,0.70
2023-03-12T06:21:42.347Z,1.03
2023-03-12T06:24:08.881Z,1.30
2023-03-12T06:26:35.490Z,2.10
2023-03-12T06:29:02.094Z,0.80
2023-03-12T06:31:28.715Z,3.03
2023-03-12T06:33:55.226Z,1.73
2023-03-12T06:36:23.369Z,1.00
2023-03-12T06:38:50.076Z,1.63
2023-03-12T06:41:17.380Z,2.80
2023-03-12T06:43:44.582Z,3.43
2023-03-12T06:46:12.569Z,1.83
2023-03-12T06:48:41.463Z,0.83
2023-03-12T06:51:26.789Z,1.67
2023-03-12T06:53:53.409Z,1.27
2023-03-12T07:03:41.402Z,2.40
2023-03-12T07:06:13.715Z,1.83
2023-03-12T07:08:40.250Z,14.07
2023-03-12T07:11:06.834Z,2.23
2023-03-12T07:13:33.310Z,1.47
2023-03-12T07:15:59.936Z,0.83
2023-03-12T07:18:26.527Z,2.33
2023-03-12T07:20:53.227Z,1.17
2023-03-12T07:23:20.173Z,1.97
2023-03-12T07:29:34.035Z,1.63
2023-03-12T07:32:00.675Z,10.57
2023-03-12T07:34:27.294Z,3.40
2023-03-12T07:36:54.994Z,10.63
2023-03-12T07:39:21.593Z,2.90
2023-03-12T07:41:50.466Z,2.53
2023-03-12T07:44:17.244Z,8.13
2023-03-12T07:46:43.822Z,3.07
2023-03-12T07:49:10.326Z,3.80
2023-03-12T07:51:36.837Z,3.60
2023-03-12T07:54:12.749Z,3.57
2023-03-12T07:56:39.488Z,3.17
2023-03-12T07:59:06.245Z,1.67
2023-03-12T08:01:32.981Z,3.43
2023-03-12T08:03:59.644Z,3.17
2023-03-12T08:06:26.765Z,2.53
2023-03-12T08:08:53.430Z,3.43
2023-03-12T08:11:20.035Z,3.63
2023-03-12T08:13:46.599Z,2.00
2023-03-12T08:16:14.818Z,3.40
2023-03-12T08:18:43.178Z,1.80
2023-03-12T08:21:09.720Z,1.10
2023-03-12T08:23:36.288Z,1.10
2023-03-12T08:26:03.170Z,1.07
2023-03-12T08:28:29.643Z,2.00
2023-03-12T08:30:56.285Z,2.07
2023-03-12T08:33:22.831Z,3.23
2023-03-12T08:35:49.479Z,2.37
2023-03-12T08:38:16.015Z,4.53
2023-03-12T08:40:42.541Z,5.37
2023-03-12T08:43:12.147Z,2.50
2023-03-12T08:45:38.778Z,1.40
2023-03-12T08:48:06.031Z,2.30
2023-03-12T08:50:33.241Z,3.17
2023-03-12T08:52:59.936Z,4.20
2023-03-12T08:55:29.538Z,4.80
2023-03-12T08:57:56.683Z,3.83
2023-03-12T09:00:23.335Z,0.70
2023-03-12T09:02:52.157Z,1.43
2023-03-12T09:05:19.372Z,1.53
2023-03-12T09:07:45.892Z,1.83
2023-03-12T09:10:12.486Z,1.23
2023-03-12T09:12:39.118Z,1.13
2023-03-12T09:15:06.313Z,1.33
2023-03-12T09:21:22.401Z,1.00
2023-03-12T09:23:49.586Z,2.80
2023-03-12T09:26:16.223Z,2.00
2023-03-12T09:28:47.637Z,2.97
2023-03-12T09:35:02.306Z,1.83
2023-03-12T09:37:33.454Z,0.70
2023-03-12T09:40:00.432Z,0.33
2023-03-12T09:42:35.826Z,1.03
2023-03-12T09:45:04.648Z,2.13
2023-03-12T09:54:52.396Z,2.50
2023-03-12T09:57:22.933Z,3.37
2023-03-12T09:59:50.168Z,1.00
2023-03-12T10:06:11.350Z,1.90
2023-03-12T10:08:54.321Z,2.53
2023-03-12T10:11:27.281Z,3.23
2023-03-12T10:13:58.768Z,1.80
2023-03-12T10:16:34.499Z,2.17
2023-03-12T10:19:07.064Z,1.27
2023-03-12T10:22:17.941Z,1.90
2023-03-12T10:24:59.834Z,1.07
2023-03-12T10:27:28.658Z,2.00
2023-03-12T10:29:55.496Z,1.10
2023-03-12T10:32:40.864Z,1.80
2023-03-12T10:35:14.547Z,1.50
2023-03-12T10:37:43.843Z,1.17
2023-03-12T10:40:18.193Z,0.97
2023-03-12T10:42:44.728Z,4.30
2023-03-12T10:45:11.261Z,0.80
2023-03-12T10:47:44.975Z,1.23
2023-03-12T10:50:22.042Z,1.43
2023-03-12T10:52:50.075Z,1.13
2023-03-12T10:55:17.110Z,0.93
2023-03-12T10:57:44.620Z,2.30
2023-03-12T11:00:24.178Z,2.33
2023-03-12T11:03:06.679Z,1.43
2023-03-12T11:05:33.233Z,2.73
2023-03-12T11:11:41.199Z,2.03
2023-03-12T11:14:10.640Z,2.47
2023-03-12T11:16:37.193Z,3.00
2023-03-12T11:19:04.840Z,1.87
2023-03-12T11:21:32.747Z,3.80
2023-03-12T11:23:59.282Z,3.13
2023-03-12T11:26:34.015Z,1.33
2023-03-12T11:29:09.634Z,10.43
2023-03-12T11:31:39.082Z,1.13
2023-03-12T11:34:06.592Z,1.47
2023-03-12T11:40:01.208Z,2.23
2023-03-12T11:42:33.959Z,7.97
2023-03-12T11:45:07.733Z,2.80
2023-03-12T11:51:41.899Z,1.57
2023-03-12T11:54:28.657Z,2.63
2023-03-12T11:57:21.332Z,13.03
2023-03-12T12:00:11.001Z,2.00
2023-03-12T12:10:06.678Z,5.07
2023-03-12T12:12:39.753Z,5.93
2023-03-12T12:15:22.889Z,3.93
2023-03-12T12:18:14.181Z,2.60
2023-03-12T12:20:49.011Z,2.60
2023-03-12T12:23:37.655Z,1.30
2023-03-12T12:37:36.577Z,1.63
2023-03-12T12:40:21.155Z,1.40
2023-03-12T12:42:52.333Z,2.40
2023-03-12T12:45:19.681Z,2.20
2023-03-12T12:48:08.022Z,2.03
2023-03-12T12:50:37.071Z,3.50
2023-03-12T12:53:07.746Z,2.73
2023-03-12T12:55:37.965Z,2.10
2023-03-12T12:58:24.453Z,2.40
2023-03-12T13:00:55.779Z,2.50
2023-03-12T13:03:23.594Z,2.70
2023-03-12T13:05:52.920Z,3.50
2023-03-12T13:08:42.343Z,3.50
2023-03-12T13:11:19.764Z,6.03
2023-03-12T13:13:49.156Z,3.00
2023-03-12T13:16:33.752Z,4.20
2023-03-12T13:19:01.472Z,4.30
2023-03-12T13:21:36.624Z,4.37
2023-03-12T13:24:07.459Z,6.20
2023-03-12T13:26:46.512Z,1.43
2023-03-12T13:29:20.757Z,4.00
2023-03-12T13:31:47.498Z,1.40
2023-03-12T13:34:16.982Z,2.50
2023-03-12T13:36:47.297Z,3.00
2023-03-12T13:39:16.542Z,5.33
2023-03-12T13:41:46.068Z,2.77
2023-03-12T13:44:29.054Z,4.40
2023-03-12T13:47:13.981Z,5.40
2023-03-12T13:49:40.549Z,4.82
2023-03-12T14:03:33.773Z,3.77
2023-03-12T14:06:13.950Z,3.03
2023-03-12T14:08:46.381Z,3.10
2023-03-12T14:11:33.491Z,1.90
2023-03-12T14:14:08.883Z,2.10
2023-03-12T14:16:40.683Z,1.87
2023-03-12T14:19:07.790Z,3.57
2023-03-12T14:21:35.849Z,1.97
2023-03-12T14:24:22.133Z,5.00
2023-03-12T14:26:48.954Z,2.70
2023-03-12T14:29:19.927Z,2.90
2023-03-12T14:31:47.451Z,3.50
2023-03-12T14:34:28.948Z,3.90
2023-03-12T14:36:55.473Z,5.40
2023-03-12T14:39:27.748Z,2.20
2023-03-12T14:41:57.500Z,4.27
2023-03-12T14:44:25.228Z,4.17
2023-03-12T14:47:02.243Z,6.50
2023-03-12T14:49:29.925Z,5.30
2023-03-12T14:51:56.939Z,3.77
2023-03-12T14:54:24.981Z,4.13
2023-03-12T14:56:51.848Z,2.53
2023-03-12T14:59:32.118Z,3.30
2023-03-12T15:02:04.190Z,4.43
2023-03-12T15:04:33.179Z,6.53
2023-03-12T15:07:04.431Z,5.03
2023-03-12T15:09:32.784Z,5.33
2023-03-12T15:12:04.185Z,3.87
2023-03-12T15:14:34.024Z,3.27
2023-03-12T15:17:00.690Z,4.00
2023-03-12T15:19:29.202Z,3.30
2023-03-12T15:21:56.124Z,5.27
2023-03-12T15:24:22.943Z,8.77
2023-03-12T15:26:49.462Z,7.27
2023-03-12T15:29:29.124Z,5.97
2023-03-12T15:31:59.896Z,3.60
2023-03-12T15:34:32.154Z,3.40
2023-03-12T15:37:00.124Z,3.93
2023-03-12T15:39:36.048Z,5.30
2023-03-12T15:42:08.251Z,3.93
2023-03-12T15:45:04.283Z,5.50
2023-03-12T15:51:14.758Z,4.27
2023-03-12T15:53:41.311Z,5.17
2023-03-12T15:56:10.410Z,21.43
2023-03-12T15:58:38.502Z,7.30
2023-03-12T16:01:08.278Z,8.63
2023-03-12T16:03:35.000Z,9.17
2023-03-12T16:06:01.597Z,7.13
2023-03-12T16:08:34.321Z,6.93
2023-03-12T16:11:00.820Z,8.93
2023-03-12T16:13:31.260Z,8.50
2023-03-12T16:15:58.377Z,9.67
2023-03-12T16:18:25.164Z,12.40
2023-03-12T16:20:52.553Z,14.50
2023-03-12T16:23:19.450Z,13.93
2023-03-12T16:25:47.488Z,7.97
2023-03-12T16:28:15.292Z,10.30
2023-03-12T16:30:41.885Z,8.53
2023-03-12T16:33:09.416Z,9.70
2023-03-12T16:35:36.515Z,8.53
2023-03-12T16:38:03.613Z,5.60
2023-03-12T16:40:34.841Z,9.23
2023-03-12T16:43:04.055Z,11.77
2023-03-12T16:45:31.674Z,11.27
2023-03-12T16:47:59.184Z,9.60
2023-03-12T16:50:26.158Z,9.60
2023-03-12T16:52:52.821Z,6.67
2023-03-12T16:55:20.166Z,8.20
2023-03-12T16:57:57.869Z,7.70
2023-03-12T17:00:27.978Z,14.53
2023-03-12T17:02:57.889Z,8.97
2023-03-12T17:06:01.800Z,22.37
2023-03-12T17:08:28.333Z,13.30
2023-03-12T17:10:55.465Z,16.83
2023-03-12T17:13:23.933Z,12.80
2023-03-12T17:15:50.872Z,12.60
2023-03-12T17:18:17.843Z,12.23
2023-03-12T17:20:44.700Z,17.53
2023-03-12T17:23:11.360Z,17.63
2023-03-12T17:25:39.584Z,17.47
2023-03-12T17:28:19.550Z,17.47
2023-03-12T17:30:47.421Z,13.27
2023-03-12T17:33:25.490Z,16.97
2023-03-12T17:36:20.056Z,12.10
2023-03-12T17:38:47.599Z,6.90
2023-03-12T17:41:26.112Z,7.33
2023-03-12T17:43:55.015Z,16.67
2023-03-12T17:50:02.264Z,21.00
2023-03-12T17:52:28.893Z,53.73
2023-03-12T17:54:55.429Z,40.97
2023-03-12T17:57:22.901Z,33.57
2023-03-12T18:00:13.220Z,25.07
2023-03-12T18:02:40.978Z,25.87
2023-03-12T18:05:08.064Z,39.40
2023-03-12T18:07:34.733Z,43.53
2023-03-12T18:10:01.375Z,36.27
2023-03-12T18:12:28.211Z,29.60
2023-03-12T18:14:54.879Z,30.70
2023-03-12T18:17:21.488Z,47.07
2023-03-12T18:19:48.025Z,49.57
2023-03-12T18:22:14.847Z,40.97
2023-03-12T18:24:41.929Z,35.10
2023-03-12T18:27:08.501Z,36.47
2023-03-12T18:29:36.880Z,34.30
2023-03-12T18:32:03.980Z,27.83
2023-03-12T18:34:30.529Z,26.67
2023-03-12T18:36:57.110Z,27.87
2023-03-12T18:39:23.766Z,25.40
2023-03-12T18:41:50.356Z,22.90
2023-03-12T18:44:16.931Z,21.43
2023-03-12T18:50:12.613Z,24.90
2023-03-12T18:52:39.200Z,24.77
2023-03-12T18:55:06.023Z,23.50
2023-03-12T18:57:32.826Z,24.33
2023-03-12T19:00:00.169Z,24.97
2023-03-12T19:02:26.817Z,21.53
2023-03-12T19:04:56.027Z,24.23
2023-03-12T19:07:22.887Z,24.27
2023-03-12T19:09:49.509Z,22.33
2023-03-12T19:12:16.095Z,47.03
2023-03-12T19:14:42.693Z,43.50
2023-03-12T19:17:09.239Z,44.63
2023-03-12T19:19:35.837Z,31.00
2023-03-12T19:22:02.594Z,24.90
2023-03-12T19:31:56.952Z,31.00
2023-03-12T19:34:31.932Z,34.17
2023-03-12T19:36:58.420Z,39.77
2023-03-12T19:39:25.120Z,43.07
2023-03-12T19:41:59.370Z,51.17
2023-03-12T19:44:26.224Z,47.03
2023-03-12T19:46:52.843Z,44.10
2023-03-12T19:49:19.429Z,40.43
2023-03-12T19:51:46.087Z,33.27
2023-03-12T19:54:12.765Z,33.53
2023-03-12T19:56:46.519Z,35.63
2023-03-12T19:59:13.150Z,35.33
2023-03-12T20:01:41.434Z,35.03
2023-03-12T20:04:11.620Z,36.40
2023-03-12T20:06:38.486Z,45.10
2023-03-12T20:09:07.973Z,43.63
2023-03-12T20:11:35.755Z,42.97
2023-03-12T20:14:08.730Z,44.70
2023-03-12T20:16:36.707Z,44.53
2023-03-12T20:19:05.706Z,51.80
2023-03-12T20:21:35.068Z,65.27
2023-03-12T20:24:02.423Z,60.97
2023-03-12T20:26:29.083Z,53.50
2023-03-12T20:28:55.622Z,54.43
2023-03-12T20:31:22.176Z,51.63
2023-03-12T20:33:48.713Z,47.93
2023-03-12T20:36:15.303Z,43.27
2023-03-12T20:38:43.411Z,34.17
2023-03-12T20:45:02.650Z,44.20
2023-03-12T20:47:29.264Z,44.00
2023-03-12T20:49:55.812Z,37.03
2023-03-12T20:52:22.316Z,38.27
2023-03-12T20:54:48.974Z,35.27
2023-03-12T21:00:56.554Z,31.67
2023-03-12T21:03:24.720Z,35.63
2023-03-12T21:05:55.354Z,34.50
2023-03-12T21:08:22.616Z,33.10
2023-03-12T21:10:51.189Z,31.13
2023-03-12T21:13:18.537Z,30.77
2023-03-12T21:15:45.375Z,30.13
2023-03-12T21:18:12.062Z,26.77
2023-03-12T21:20:39.688Z,31.40
2023-03-12T21:23:07.174Z,35.80
2023-03-12T21:25:37.438Z,37.20
2023-03-12T21:28:04.717Z,35.53
2023-03-12T21:30:31.828Z,31.97
2023-03-12T21:32:58.553Z,29.33
2023-03-12T21:35:26.686Z,26.93
2023-03-12T21:41:41.176Z,28.33
2023-03-12T21:44:07.830Z,26.93
2023-03-12T21:46:34.724Z,29.77
2023-03-12T21:49:01.430Z,30.73
2023-03-12T21:51:28.235Z,30.33
2023-03-12T21:53:55.473Z,27.30
2023-03-12T21:56:22.545Z,27.70
2023-03-12T21:58:49.163Z,31.73
2023-03-12T22:01:16.881Z,28.07
2023-03-12T22:03:46.332Z,31.40
2023-03-12T22:06:13.546Z,32.37
2023-03-12T22:08:40.479Z,28.10
2023-03-12T22:11:07.490Z,24.60
2023-03-12T22:13:34.063Z,22.23
2023-03-12T22:16:01.871Z,24.47
2023-03-12T22:18:28.944Z,24.07
2023-03-12T22:28:42.581Z,21.27
2023-03-12T22:31:09.713Z,20.67
2023-03-12T22:33:36.872Z,21.33
2023-03-12T22:36:07.693Z,22.77
2023-03-12T22:38:34.398Z,22.73
2023-03-12T22:44:43.838Z,22.57
2023-03-12T22:47:10.385Z,27.57
2023-03-12T22:49:36.878Z,23.53
2023-03-12T22:52:03.454Z,25.27
2023-03-12T22:58:17.082Z,26.00
2023-03-12T23:00:43.669Z,25.83
2023-03-12T23:03:18.009Z,24.97
2023-03-12T23:05:44.565Z,23.93
2023-03-12T23:08:11.086Z,24.60
2023-03-12T23:10:37.722Z,26.07
2023-03-12T23:13:04.547Z,25.37
2023-03-12T23:15:40.544Z,25.43
2023-03-12T23:18:19.924Z,24.10
2023-03-12T23:20:46.998Z,25.87
2023-03-12T23:23:15.704Z,24.83
2023-03-12T23:25:42.252Z,26.53
2023-03-12T23:28:08.810Z,26.70
2023-03-12T23:30:35.364Z,30.27
2023-03-12T23:33:02.165Z,28.07
2023-03-12T23:35:28.927Z,20.50
2023-03-12T23:37:56.540Z,22.50
2023-03-12T23:40:23.095Z,21.67
2023-03-12T23:42:49.601Z,23.57
2023-03-12T23:45:16.133Z,19.53
2023-03-12T23:47:42.670Z,17.97
2023-03-12T23:50:09.556Z,21.30
2023-03-12T23:52:36.096Z,19.37
2023-03-12T23:55:02.617Z,20.17
2023-03-12T23:57:29.448Z,19.53
